Time;durP1;ratioP1;P1;durP2;ratioP2;P2;SDS_P1;SDS_P2;PMS_P1;PMS_P2;Temp;Humidity;BMP_temperature;BMP_pressure;BME280_temperature;BME280_humidity;BME280_pressure;Samples;Min_cycle;Max_cycle;Signal;HPM_P1;HPM_P2
2022/07/12 03:01:39;;;;;;;0.20;0.20;;;24.10;45.90;;;;;;5344721;23;45903;-64
2022/07/12 03:04:06;;;;;;;0.30;0.30;;;24.10;45.90;;;;;;4910770;28;45274;-64
2022/07/12 03:06:32;;;;;;;0.50;0.30;;;24.10;45.90;;;;;;4918799;28;45482;-65
2022/07/12 03:08:58;;;;;;;0.30;0.30;;;24.10;45.90;;;;;;4916589;28;45497;-63
2022/07/12 03:11:25;;;;;;;0.28;0.20;;;24.10;45.90;;;;;;4927074;28;46047;-62
2022/07/12 03:13:51;;;;;;;0.50;0.20;;;24.10;45.90;;;;;;4910967;28;45055;-62
2022/07/12 03:16:17;;;;;;;0.50;0.32;;;24.10;45.90;;;;;;4933293;28;44935;-66
2022/07/12 03:18:43;;;;;;;0.30;0.30;;;24.10;45.90;;;;;;4935171;28;45256;-68
2022/07/12 03:21:11;;;;;;;0.40;0.40;;;24.10;45.90;;;;;;4934148;28;45117;-65
2022/07/12 03:23:37;;;;;;;0.20;0.20;;;24.10;45.90;;;;;;4932102;28;45007;-66
2022/07/12 03:26:04;;;;;;;0.28;0.20;;;24.10;45.90;;;;;;4917748;28;44674;-64
2022/07/12 03:28:30;;;;;;;0.10;0.10;;;24.10;45.90;;;;;;4918740;28;45341;-72
2022/07/12 03:30:57;;;;;;;0.38;0.20;;;24.10;45.90;;;;;;4918065;28;46967;-64
2022/07/12 03:33:23;;;;;;;0.10;0.10;;;24.00;45.90;;;;;;4935947;28;45573;-64
2022/07/12 03:35:50;;;;;;;0.40;0.20;;;24.10;46.00;;;;;;4925297;28;45022;-63
2022/07/12 03:38:16;;;;;;;0.43;0.20;;;24.00;45.90;;;;;;4909405;28;46153;-66
2022/07/12 03:40:43;;;;;;;0.20;0.20;;;24.00;45.90;;;;;;4924740;28;45437;-70
2022/07/12 03:43:10;;;;;;;0.20;0.20;;;24.00;45.90;;;;;;4928695;28;45734;-65
2022/07/12 03:45:36;;;;;;;0.30;0.30;;;24.00;45.90;;;;;;4929504;28;45331;-67
2022/07/12 03:48:03;;;;;;;0.30;0.30;;;24.00;45.90;;;;;;4905567;28;45648;-67
2022/07/12 03:50:29;;;;;;;0.20;0.20;;;24.00;45.90;;;;;;4925770;28;45686;-71
2022/07/12 03:52:56;;;;;;;0.15;0.15;;;24.00;45.90;;;;;;4925439;28;45257;-69
2022/07/12 03:55:22;;;;;;;0.20;0.20;;;24.00;46.00;;;;;;4924824;28;45613;-62
2022/07/12 03:57:48;;;;;;;0.20;0.20;;;24.00;46.00;;;;;;4926106;28;45406;-69
2022/07/12 04:00:15;;;;;;;0.25;0.25;;;24.00;46.00;;;;;;4926167;28;45640;-66
2022/07/12 04:02:41;;;;;;;0.82;0.30;;;24.00;46.00;;;;;;4923577;28;45644;-71
2022/07/12 04:05:08;;;;;;;0.20;0.20;;;24.00;45.90;;;;;;4906755;28;45665;-62
2022/07/12 04:07:35;;;;;;;0.10;0.10;;;24.00;46.00;;;;;;4908368;28;45684;-64
2022/07/12 04:10:02;;;;;;;0.10;0.10;;;24.00;45.90;;;;;;4926030;28;45693;-65
2022/07/12 04:12:28;;;;;;;0.15;0.15;;;24.00;45.90;;;;;;4895250;28;45447;-66
2022/07/12 04:14:55;;;;;;;0.20;0.15;;;24.00;45.90;;;;;;4929337;28;45559;-67
2022/07/12 04:17:21;;;;;;;0.28;0.20;;;24.00;45.90;;;;;;4927508;28;45747;-70
2022/07/12 04:19:47;;;;;;;0.20;0.20;;;24.00;45.90;;;;;;4912205;28;45270;-68
2022/07/12 04:22:14;;;;;;;0.20;0.20;;;24.00;45.90;;;;;;4909897;28;45603;-64
2022/07/12 04:24:40;;;;;;;0.20;0.20;;;24.00;45.90;;;;;;4910907;28;45178;-72
2022/07/12 04:27:06;;;;;;;0.20;0.20;;;24.00;45.90;;;;;;4928683;28;45187;-66
2022/07/12 04:29:33;;;;;;;0.20;0.20;;;24.00;45.90;;;;;;4928497;28;46180;-62
2022/07/12 04:31:59;;;;;;;1.60;0.38;;;24.00;46.00;;;;;;4909791;28;45593;-67
2022/07/12 04:34:26;;;;;;;0.30;0.30;;;24.00;45.90;;;;;;4925685;28;45049;-71
2022/07/12 04:36:52;;;;;;;0.10;0.10;;;24.00;45.90;;;;;;4929455;28;45190;-65
2022/07/12 04:39:18;;;;;;;0.20;0.20;;;24.00;45.80;;;;;;4893886;28;45114;-68
2022/07/12 04:41:45;;;;;;;0.20;0.20;;;24.00;45.80;;;;;;4913281;28;45664;-67
2022/07/12 04:44:11;;;;;;;0.30;0.30;;;24.00;45.80;;;;;;4896419;28;45012;-70
2022/07/12 04:46:37;;;;;;;0.30;0.30;;;24.00;45.80;;;;;;4929772;28;45520;-69
2022/07/12 04:49:06;;;;;;;0.20;0.20;;;24.10;45.90;;;;;;4929904;28;45345;-68
2022/07/12 04:51:32;;;;;;;0.60;0.30;;;24.00;45.90;;;;;;4926181;28;45751;-69
2022/07/12 04:53:59;;;;;;;0.30;0.15;;;24.00;45.90;;;;;;4928519;28;45927;-70
2022/07/12 04:56:25;;;;;;;0.20;0.20;;;24.00;45.90;;;;;;4912173;28;45054;-66
2022/07/12 04:58:51;;;;;;;0.63;0.35;;;24.00;45.80;;;;;;4914420;28;46589;-66
2022/07/12 05:01:18;;;;;;;0.25;0.20;;;24.00;45.90;;;;;;4930869;28;45499;-63
2022/07/12 05:03:43;;;;;;;0.30;0.20;;;24.00;46.40;;;;;;4931369;28;45488;-65
2022/07/12 05:06:10;;;;;;;0.10;0.10;;;24.00;45.80;;;;;;4935243;28;45046;-66
2022/07/12 05:08:36;;;;;;;0.10;0.10;;;24.00;45.80;;;;;;4928948;28;45573;-69
2022/07/12 05:11:02;;;;;;;0.28;0.28;;;24.00;45.90;;;;;;4935280;28;45293;-70
2022/07/12 05:13:28;;;;;;;1.40;0.20;;;24.00;45.80;;;;;;4932246;28;45258;-65
2022/07/12 05:15:58;;;;;;;0.32;0.32;;;24.00;45.90;;;;;;4928348;28;45449;-63
2022/07/12 05:18:25;;;;;;;0.30;0.20;;;24.00;45.80;;;;;;4945408;28;45700;-61
2022/07/12 05:20:51;;;;;;;0.43;0.30;;;24.00;45.70;;;;;;4917957;28;45013;-62
2022/07/12 05:23:18;;;;;;;0.45;0.32;;;24.10;45.60;;;;;;4917966;28;45293;-68
2022/07/12 05:25:44;;;;;;;0.10;0.10;;;24.20;45.30;;;;;;4942506;28;44870;-63
2022/07/12 05:28:11;;;;;;;0.65;0.30;;;24.40;45.10;;;;;;4936725;28;45914;-68
2022/07/12 05:30:37;;;;;;;0.65;0.25;;;24.50;44.80;;;;;;4931923;28;45296;-65
2022/07/12 05:33:04;;;;;;;0.32;0.28;;;24.60;44.60;;;;;;4933660;28;45192;-66
2022/07/12 05:35:30;;;;;;;0.22;0.20;;;24.70;44.30;;;;;;4913513;28;45457;-61
2022/07/12 05:37:56;;;;;;;1.02;0.20;;;25.20;43.50;;;;;;4932408;28;45998;-65
2022/07/12 05:40:23;;;;;;;0.20;0.20;;;26.70;41.20;;;;;;4926085;28;44920;-66
2022/07/12 05:42:49;;;;;;;0.40;0.40;;;27.00;40.20;;;;;;4933361;28;45409;-66
2022/07/12 05:45:15;;;;;;;0.20;0.20;;;27.20;39.80;;;;;;4931311;28;45022;-68
2022/07/12 05:47:42;;;;;;;0.20;0.20;;;27.20;39.70;;;;;;4921693;28;46107;-63
2022/07/12 05:50:08;;;;;;;0.30;0.20;;;26.70;40.30;;;;;;4930012;28;46174;-67
2022/07/12 05:55:20;;;;;;;0.10;0.10;;;25.70;42.10;;;;;;4931636;28;45023;-63
2022/07/12 05:57:46;;;;;;;0.20;0.20;;;25.40;42.80;;;;;;4930522;28;46189;-63
2022/07/12 06:00:13;;;;;;;1.15;0.30;;;25.10;43.30;;;;;;4933351;28;44955;-61
2022/07/12 06:02:39;;;;;;;0.40;0.40;;;25.00;43.70;;;;;;4897635;28;45639;-64
2022/07/12 06:05:06;;;;;;;0.43;0.30;;;24.90;44.30;;;;;;4909075;28;45054;-61
2022/07/12 06:07:33;;;;;;;0.52;0.35;;;24.80;44.60;;;;;;4911123;28;46998;-65
2022/07/12 06:09:59;;;;;;;2.13;0.43;;;24.70;45.00;;;;;;4911272;28;45473;-63
2022/07/12 06:12:25;;;;;;;2.28;0.25;;;24.70;45.30;;;;;;4910571;28;45510;-68
2022/07/12 06:14:51;;;;;;;0.55;0.28;;;24.60;45.60;;;;;;4907333;28;45320;-64
2022/07/12 06:17:22;;;;;;;0.60;0.40;;;24.60;45.80;;;;;;4925196;28;46205;-63
2022/07/12 06:19:49;;;;;;;0.73;0.30;;;24.50;45.80;;;;;;4911887;28;45591;-63
2022/07/12 06:22:15;;;;;;;0.50;0.50;;;24.50;46.00;;;;;;4911331;28;45023;-64
2022/07/12 06:24:41;;;;;;;0.60;0.30;;;24.50;46.20;;;;;;4914824;28;45450;-65
2022/07/12 06:27:08;;;;;;;1.17;0.50;;;24.50;46.40;;;;;;4909652;28;46175;-63
2022/07/12 06:29:34;;;;;;;0.60;0.40;;;24.40;46.50;;;;;;4911220;28;45445;-62
2022/07/12 06:32:00;;;;;;;1.38;0.40;;;24.50;46.60;;;;;;4914328;28;44827;-61
2022/07/12 06:34:26;;;;;;;0.40;0.35;;;24.40;46.60;;;;;;4917485;28;45813;-62
2022/07/12 06:36:52;;;;;;;3.13;0.45;;;24.40;46.60;;;;;;4920152;28;45817;-64
2022/07/12 06:39:18;;;;;;;0.85;0.30;;;24.40;46.70;;;;;;4915827;28;45456;-63
2022/07/12 06:41:45;;;;;;;0.45;0.20;;;24.50;46.80;;;;;;4915819;28;45268;-61
2022/07/12 06:44:11;;;;;;;0.95;0.30;;;24.50;46.70;;;;;;4917553;28;44927;-65
2022/07/12 06:46:38;;;;;;;0.35;0.20;;;24.50;46.70;;;;;;4917269;28;45969;-64
2022/07/12 06:49:04;;;;;;;0.47;0.40;;;24.60;46.70;;;;;;4918263;28;45460;-62
2022/07/12 06:51:30;;;;;;;0.38;0.30;;;24.60;46.60;;;;;;4909806;28;44668;-63
2022/07/12 06:53:56;;;;;;;0.30;0.30;;;24.60;46.60;;;;;;4902769;28;45267;-64
2022/07/12 06:56:23;;;;;;;0.68;0.35;;;24.70;46.50;;;;;;4919179;28;46173;-67
2022/07/12 06:58:49;;;;;;;0.38;0.30;;;24.80;46.50;;;;;;4915717;28;45343;-62
2022/07/12 07:01:16;;;;;;;0.65;0.38;;;24.70;46.40;;;;;;4919139;28;45358;-64
2022/07/12 07:03:42;;;;;;;1.83;0.40;;;24.70;46.60;;;;;;4935338;28;46170;-65
2022/07/12 07:06:08;;;;;;;0.30;0.30;;;24.70;46.70;;;;;;4933351;28;45473;-66
2022/07/12 07:08:34;;;;;;;0.55;0.30;;;24.70;46.70;;;;;;4937173;28;45193;-64
2022/07/12 07:11:01;;;;;;;0.95;0.30;;;24.70;46.80;;;;;;4931801;28;45131;-61
2022/07/12 07:13:27;;;;;;;0.90;0.40;;;24.60;46.90;;;;;;4915394;28;45627;-62
2022/07/12 07:15:53;;;;;;;0.68;0.25;;;24.60;46.90;;;;;;4931958;28;46474;-63
2022/07/12 07:18:19;;;;;;;0.60;0.40;;;24.60;47.00;;;;;;4917080;28;45301;-63
2022/07/12 07:20:46;;;;;;;0.70;0.40;;;24.60;47.10;;;;;;4938155;28;45430;-63
2022/07/12 07:23:16;;;;;;;1.52;0.60;;;24.60;47.10;;;;;;4928558;28;45165;-64
2022/07/12 07:25:44;;;;;;;3.72;0.52;;;24.60;47.10;;;;;;4930036;28;45618;-65
2022/07/12 07:28:10;;;;;;;1.17;0.40;;;24.50;47.10;;;;;;4934739;28;45000;-64
2022/07/12 07:30:52;;;;;;;5.70;0.75;;;24.50;47.10;;;;;;4929105;28;45227;-63
2022/07/12 07:33:22;;;;;;;2.65;1.00;;;24.60;47.20;;;;;;4932471;28;45307;-63
2022/07/12 07:35:49;;;;;;;2.35;1.00;;;24.60;47.20;;;;;;4937599;28;45416;-64
2022/07/12 07:38:16;;;;;;;2.30;0.70;;;24.60;47.30;;;;;;4929886;28;45495;-63
2022/07/12 07:40:42;;;;;;;1.13;0.63;;;24.60;47.30;;;;;;4933717;28;45510;-63
2022/07/12 07:43:08;;;;;;;0.90;0.50;;;24.60;47.20;;;;;;4904494;28;45510;-66
2022/07/12 07:45:35;;;;;;;1.52;0.40;;;24.60;47.10;;;;;;4901958;28;45354;-63
2022/07/12 07:48:01;;;;;;;0.90;0.45;;;24.70;47.20;;;;;;4933454;28;45096;-65
2022/07/12 07:50:28;;;;;;;1.52;0.60;;;24.70;47.10;;;;;;4933877;28;45129;-64
2022/07/12 07:52:54;;;;;;;1.23;0.60;;;24.70;47.10;;;;;;4938258;28;45444;-65
2022/07/12 07:55:20;;;;;;;3.13;0.60;;;24.70;47.00;;;;;;4913818;28;47159;-62
2022/07/12 07:57:47;;;;;;;3.10;0.55;;;24.70;47.10;;;;;;4927177;28;45323;-67
2022/07/12 08:00:14;;;;;;;0.40;0.40;;;24.70;47.10;;;;;;4928202;28;45034;-64
2022/07/12 08:02:41;;;;;;;3.28;0.40;;;24.70;47.20;;;;;;4926345;28;45160;-63
2022/07/12 08:05:26;;;;;;;0.50;0.43;;;24.70;47.20;;;;;;4915553;28;46765;-65
2022/07/12 08:08:12;;;;;;;5.00;0.47;;;24.70;47.20;;;;;;4903307;28;45445;-64
2022/07/12 08:10:57;;;;;;;2.60;0.50;;;24.70;47.20;;;;;;4895783;28;45664;-66
2022/07/12 08:13:43;;;;;;;1.13;0.63;;;24.60;47.20;;;;;;4902862;28;45410;-63
2022/07/12 08:16:28;;;;;;;1.13;0.30;;;24.60;47.10;;;;;;4919921;28;47048;-64
2022/07/12 08:19:14;;;;;;;0.77;0.35;;;24.60;47.00;;;;;;4913437;28;45294;-63
2022/07/12 08:22:00;;;;;;;1.00;0.22;;;24.60;47.00;;;;;;4918001;28;45564;-64
2022/07/12 08:24:45;;;;;;;0.45;0.30;;;24.60;47.00;;;;;;4923230;28;45425;-65
2022/07/12 08:27:31;;;;;;;0.73;0.38;;;24.60;47.00;;;;;;4920548;28;46968;-68
2022/07/12 08:30:16;;;;;;;1.80;0.38;;;24.60;46.90;;;;;;4908682;28;45316;-63
2022/07/12 08:33:02;;;;;;;0.60;0.40;;;24.60;46.90;;;;;;4914752;28;45300;-64
2022/07/12 08:35:48;;;;;;;0.73;0.30;;;24.60;46.80;;;;;;4915999;28;45535;-63
2022/07/12 08:38:36;;;;;;;0.80;0.40;;;24.70;46.80;;;;;;4912243;28;46664;-60
2022/07/12 08:41:21;;;;;;;0.32;0.30;;;24.70;46.60;;;;;;4905757;28;45374;-66
2022/07/12 08:44:07;;;;;;;0.80;0.30;;;24.70;46.30;;;;;;4912942;28;45478;-66
2022/07/12 08:46:52;;;;;;;0.32;0.32;;;24.70;46.10;;;;;;4904395;28;45188;-65
2022/07/12 08:49:38;;;;;;;0.95;0.60;;;24.70;46.00;;;;;;4923135;28;46663;-63
2022/07/12 08:52:25;;;;;;;0.40;0.32;;;24.70;46.00;;;;;;4914022;28;45421;-63
2022/07/12 08:55:24;;;;;;;0.32;0.32;;;24.70;45.90;;;;;;4921352;28;45298;-60
2022/07/12 08:58:16;;;;;;;0.50;0.28;;;24.70;45.90;;;;;;4915987;28;45492;-69
2022/07/12 09:01:02;;;;;;;2.08;0.43;;;24.70;45.90;;;;;;4911491;28;46703;-58
2022/07/12 09:03:47;;;;;;;0.30;0.17;;;24.70;45.90;;;;;;4901284;28;45533;-66
2022/07/12 09:06:33;;;;;;;0.90;0.40;;;24.70;45.80;;;;;;4927942;28;44733;-63
2022/07/12 09:09:32;;;;;;;0.32;0.30;;;24.70;45.70;;;;;;4914595;28;45346;-62
2022/07/12 09:12:23;;;;;;;0.63;0.40;;;24.80;45.60;;;;;;4902558;28;47592;-65
2022/07/12 09:15:23;;;;;;;0.40;0.20;;;24.80;45.60;;;;;;4927058;28;44996;-60
2022/07/12 09:18:13;;;;;;;0.20;0.20;;;24.80;45.40;;;;;;4900568;28;44696;-64
2022/07/12 09:20:59;;;;;;;1.05;0.20;;;24.80;45.40;;;;;;4909061;28;44739;-64
2022/07/12 09:23:52;;;;;;;0.25;0.20;;;24.80;45.20;;;;;;4910179;28;47811;-66
2022/07/12 09:26:37;;;;;;;1.42;0.30;;;24.90;44.80;;;;;;4907728;28;45521;-65
2022/07/12 09:29:23;;;;;;;0.55;0.22;;;24.80;44.90;;;;;;4918487;28;45050;-64
2022/07/12 09:38:12;;;;;;;0.13;0.13;;;24.90;44.90;;;;;;4928618;28;45215;-65
2022/07/12 09:40:57;;;;;;;1.30;0.20;;;24.90;44.90;;;;;;4904516;28;45360;-66
2022/07/12 09:43:43;;;;;;;0.40;0.40;;;24.90;44.60;;;;;;4918554;28;45482;-64
2022/07/12 09:46:29;;;;;;;1.35;0.25;;;24.90;44.40;;;;;;4898559;28;47064;-66
2022/07/12 09:49:14;;;;;;;0.30;0.30;;;25.00;44.30;;;;;;4919197;28;45330;-66
2022/07/12 09:52:00;;;;;;;0.60;0.28;;;25.00;44.00;;;;;;4889873;28;45488;-66
2022/07/12 09:54:46;;;;;;;1.23;0.30;;;25.00;43.80;;;;;;4887574;28;45593;-67
2022/07/12 09:57:19;;;;;;;2.45;0.30;;;25.00;43.90;;;;;;4904642;28;46424;-71
2022/07/12 10:00:08;;;;;;;0.20;0.20;;;25.00;43.70;;;;;;4929585;28;46087;-64
2022/07/12 10:02:55;;;;;;;0.20;0.20;;;25.10;43.80;;;;;;4916939;28;45313;-69
2022/07/12 10:05:40;;;;;;;0.38;0.20;;;25.10;43.70;;;;;;4892757;28;45697;-64
2022/07/12 10:08:26;;;;;;;0.73;0.30;;;25.10;43.60;;;;;;4892061;28;46937;-65
2022/07/12 10:11:13;;;;;;;0.52;0.20;;;25.10;43.40;;;;;;4913939;28;45298;-65
2022/07/12 10:13:58;;;;;;;0.20;0.20;;;25.10;43.30;;;;;;4917732;28;45494;-68
2022/07/12 10:16:44;;;;;;;0.38;0.20;;;25.20;43.40;;;;;;4920526;28;45563;-64
2022/07/12 10:19:35;;;;;;;1.85;0.15;;;25.10;43.10;;;;;;4907980;28;47121;-67
2022/07/12 10:22:21;;;;;;;0.20;0.20;;;25.20;43.00;;;;;;4924116;28;45333;-66
2022/07/12 10:25:30;;;;;;;3.28;0.28;;;25.20;43.00;;;;;;4905627;28;45378;-64
2022/07/12 10:28:16;;;;;;;0.98;0.38;;;25.20;42.10;;;;;;4921428;28;45512;-64
2022/07/12 10:31:01;;;;;;;0.20;0.20;;;25.20;42.60;;;;;;4915049;28;47029;-64
2022/07/12 10:33:47;;;;;;;0.20;0.20;;;25.30;42.60;;;;;;4894319;28;45596;-68
2022/07/12 10:36:55;;;;;;;2.30;0.50;;;25.30;42.60;;;;;;4894636;28;45669;-62
2022/07/12 10:39:40;;;;;;;0.73;0.28;;;25.30;42.10;;;;;;4904540;28;45055;-65
2022/07/12 10:42:26;;;;;;;0.40;0.22;;;25.30;42.30;;;;;;4892112;28;46846;-66
2022/07/12 10:45:15;;;;;;;0.30;0.28;;;25.30;42.20;;;;;;4911272;28;45372;-58
2022/07/12 10:48:20;;;;;;;0.20;0.20;;;25.30;42.10;;;;;;4921632;28;45093;-64
2022/07/12 10:51:13;;;;;;;0.10;0.10;;;25.40;41.90;;;;;;4902353;28;45276;-64
2022/07/12 10:53:58;;;;;;;0.43;0.20;;;25.40;41.70;;;;;;4918070;28;46771;-63
2022/07/12 10:56:55;;;;;;;1.45;0.20;;;25.40;41.80;;;;;;4915961;28;45573;-62
2022/07/12 10:59:41;;;;;;;0.70;0.10;;;25.40;41.30;;;;;;4915234;28;45369;-65
2022/07/12 11:02:26;;;;;;;0.40;0.10;;;25.40;41.60;;;;;;4897406;28;45441;-65
2022/07/12 11:05:12;;;;;;;0.43;0.20;;;25.40;41.40;;;;;;4903568;28;46735;-65
2022/07/12 11:07:57;;;;;;;0.20;0.20;;;25.40;41.40;;;;;;4915664;28;44844;-67
2022/07/12 11:10:55;;;;;;;0.10;0.10;;;25.40;41.30;;;;;;4896747;28;45635;-65
2022/07/12 11:13:40;;;;;;;0.30;0.25;;;25.50;40.60;;;;;;4910325;28;45289;-70
2022/07/12 11:16:26;;;;;;;0.30;0.15;;;25.50;41.00;;;;;;4911940;28;46994;-69
2022/07/12 11:19:12;;;;;;;2.67;0.22;;;25.50;40.80;;;;;;4911882;28;44934;-64
2022/07/12 11:21:58;;;;;;;0.20;0.20;;;25.60;40.90;;;;;;4913291;28;45396;-67
2022/07/12 11:24:43;;;;;;;0.55;0.20;;;25.60;40.90;;;;;;4916607;28;45164;-64
2022/07/12 11:27:29;;;;;;;1.58;0.10;;;25.60;40.90;;;;;;4899491;28;47616;-62
2022/07/12 11:30:16;;;;;;;0.20;0.10;;;25.70;40.80;;;;;;4921100;28;45448;-67
2022/07/12 11:33:01;;;;;;;2.55;0.17;;;25.70;40.60;;;;;;4909714;28;45299;-64
2022/07/12 11:35:47;;;;;;;0.25;0.17;;;25.70;40.50;;;;;;4897002;28;45587;-68
2022/07/12 11:38:34;;;;;;;0.57;0.28;;;25.70;40.50;;;;;;4895032;28;46658;-66
2022/07/12 11:41:20;;;;;;;0.30;0.20;;;25.70;40.50;;;;;;4885880;28;45545;-65
2022/07/12 11:44:05;;;;;;;0.25;0.20;;;25.80;40.50;;;;;;4924317;28;45453;-63
2022/07/12 11:46:52;;;;;;;0.20;0.20;;;25.80;40.40;;;;;;4911391;28;45211;-62
2022/07/12 11:49:44;;;;;;;0.45;0.20;;;25.90;40.30;;;;;;4902934;28;46776;-64
2022/07/12 11:52:29;;;;;;;0.52;0.25;;;25.90;40.00;;;;;;4909449;28;45472;-66
2022/07/12 11:55:15;;;;;;;0.30;0.10;;;25.90;40.10;;;;;;4892850;28;45512;-62
2022/07/12 11:58:05;;;;;;;0.25;0.17;;;26.00;40.20;;;;;;4912541;28;44983;-62
2022/07/12 12:00:51;;;;;;;0.30;0.20;;;26.00;39.90;;;;;;4909119;28;46875;-70
2022/07/12 12:03:44;;;;;;;0.10;0.10;;;26.00;40.00;;;;;;4908991;28;45585;-64
2022/07/12 12:06:30;;;;;;;;;;;26.00;39.60;;;;;;4919962;28;45194;-65
2022/07/12 12:09:16;;;;;;;0.45;0.10;;;26.00;38.70;;;;;;4903605;28;45474;-64
2022/07/12 12:12:01;;;;;;;1.10;0.20;;;26.10;39.80;;;;;;4918537;28;45478;-65
2022/07/12 12:14:47;;;;;;;0.82;0.20;;;26.10;39.40;;;;;;4912645;28;46130;-71
2022/07/12 12:17:33;;;;;;;0.10;0.10;;;26.10;39.30;;;;;;4908020;28;45338;-66
2022/07/12 12:20:20;;;;;;;1.00;0.25;;;26.10;39.00;;;;;;4902131;28;46255;-63
2022/07/12 12:23:06;;;;;;;0.40;0.20;;;26.20;38.80;;;;;;4911518;28;46705;-64
2022/07/12 12:25:51;;;;;;;0.20;0.10;;;26.20;38.90;;;;;;4910287;28;44724;-66
2022/07/12 12:29:02;;;;;;;0.98;0.20;;;26.20;38.80;;;;;;4939604;28;45233;-70
2022/07/12 12:31:56;;;;;;;0.20;0.20;;;26.30;38.70;;;;;;4900788;28;45127;-65
2022/07/12 12:34:42;;;;;;;0.40;0.20;;;26.30;38.30;;;;;;4920241;28;47816;-65
2022/07/12 12:37:27;;;;;;;0.10;0.10;;;26.30;38.60;;;;;;4891932;28;45433;-62
2022/07/12 12:40:17;;;;;;;0.50;0.20;;;26.30;38.60;;;;;;4908624;28;45588;-68
2022/07/12 12:43:12;;;;;;;0.82;0.20;;;26.40;38.60;;;;;;4915865;28;45501;-63
2022/07/12 12:45:57;;;;;;;1.95;0.20;;;26.40;38.10;;;;;;4909755;28;45412;-65
2022/07/12 12:48:46;;;;;;;0.13;0.13;;;26.40;38.50;;;;;;4918086;28;44688;-64
2022/07/12 12:51:32;;;;;;;0.30;0.30;;;26.50;38.20;;;;;;4914428;28;45857;-63
2022/07/12 12:54:32;;;;;;;0.20;0.20;;;26.50;38.10;;;;;;4890344;28;45429;-65
2022/07/12 12:57:17;;;;;;;0.10;0.10;;;26.50;37.40;;;;;;4916814;28;46880;-64
2022/07/12 13:00:03;;;;;;;0.68;0.25;;;26.50;38.00;;;;;;4904374;28;45197;-59
2022/07/12 13:02:49;;;;;;;1.30;0.40;;;26.60;38.10;;;;;;4894250;28;45462;-63
2022/07/12 13:05:35;;;;;;;1.55;0.30;;;26.60;38.00;;;;;;4906881;28;45341;-63
2022/07/12 13:08:24;;;;;;;0.95;0.20;;;26.60;38.00;;;;;;4912345;28;47586;-64
2022/07/12 13:11:22;;;;;;;1.05;0.30;;;26.70;38.10;;;;;;4897153;28;45515;-62
2022/07/12 13:14:08;;;;;;;1.27;0.20;;;26.70;38.00;;;;;;4890608;28;44662;-60
2022/07/12 13:16:53;;;;;;;0.80;0.55;;;26.70;38.00;;;;;;4889003;28;45032;-64
2022/07/12 13:19:39;;;;;;;0.28;0.20;;;26.70;38.00;;;;;;4919134;28;47440;-64
2022/07/12 13:22:24;;;;;;;1.20;0.30;;;26.70;38.10;;;;;;4918207;28;45633;-63
2022/07/12 13:25:11;;;;;;;1.10;0.20;;;26.80;38.20;;;;;;4921204;28;45379;-62
2022/07/12 13:27:56;;;;;;;0.30;0.20;;;26.80;38.10;;;;;;4904106;28;45377;-63
2022/07/12 13:30:42;;;;;;;1.95;0.20;;;26.80;38.00;;;;;;4912551;28;46875;-62
2022/07/12 13:33:27;;;;;;;1.20;0.20;;;26.90;38.00;;;;;;4898783;28;45533;-64
2022/07/12 13:36:13;;;;;;;0.30;0.22;;;26.90;38.20;;;;;;4906039;28;44772;-59
2022/07/12 13:40:10;;;;;;;1.90;0.30;;;26.90;38.10;;;;;;4918581;28;45160;-63
2022/07/12 13:42:04;;;;;;;1.75;0.40;;;26.90;38.10;;;;;;4912852;28;46629;-63
2022/07/12 13:44:50;;;;;;;0.45;0.10;;;26.90;38.20;;;;;;4907332;28;45461;-63
2022/07/12 13:47:35;;;;;;;0.40;0.20;;;26.90;38.00;;;;;;4915814;28;45417;-62
2022/07/12 13:50:21;;;;;;;0.25;0.20;;;27.00;38.00;;;;;;4905578;28;45240;-63
2022/07/12 13:53:07;;;;;;;0.22;0.10;;;27.00;37.90;;;;;;4919806;28;46879;-65
2022/07/12 13:55:53;;;;;;;0.10;0.10;;;27.00;37.90;;;;;;4912737;28;44852;-67
2022/07/12 13:58:39;;;;;;;0.90;0.20;;;27.00;37.90;;;;;;4888517;28;45377;-67
2022/07/12 14:01:24;;;;;;;0.20;0.17;;;27.00;37.80;;;;;;4911607;28;45042;-63
2022/07/12 14:04:10;;;;;;;1.15;0.28;;;27.10;38.00;;;;;;4917736;28;46656;-64
2022/07/12 14:06:56;;;;;;;0.52;0.20;;;27.10;37.90;;;;;;4920301;28;45423;-65
2022/07/12 14:09:41;;;;;;;1.02;0.30;;;27.10;37.80;;;;;;4910586;28;45227;-66
2022/07/12 14:12:27;;;;;;;1.30;0.20;;;27.10;37.80;;;;;;4909514;28;45944;-61
2022/07/12 14:15:14;;;;;;;4.45;0.20;;;27.10;37.90;;;;;;4923074;28;46828;-64
2022/07/12 14:17:59;;;;;;;1.00;0.20;;;27.10;37.90;;;;;;4906756;28;45779;-65
2022/07/12 14:20:44;;;;;;;0.60;0.28;;;27.20;37.90;;;;;;4909861;28;45244;-62
2022/07/12 14:23:30;;;;;;;0.50;0.10;;;27.10;37.70;;;;;;4914700;28;45799;-63
2022/07/12 14:26:16;;;;;;;0.40;0.10;;;27.20;37.40;;;;;;4919396;28;46701;-61
2022/07/12 14:29:01;;;;;;;1.30;0.25;;;27.30;37.30;;;;;;4918872;28;44987;-63
2022/07/12 14:31:47;;;;;;;2.60;0.28;;;27.30;37.00;;;;;;4915284;28;45544;-65
2022/07/12 14:34:32;;;;;;;0.10;0.10;;;27.30;37.10;;;;;;4921538;28;45621;-66
2022/07/12 14:37:18;;;;;;;0.20;0.10;;;27.30;37.00;;;;;;4918102;28;45790;-65
2022/07/12 14:40:04;;;;;;;0.17;0.15;;;27.40;37.00;;;;;;4912181;28;45223;-65
2022/07/12 14:42:50;;;;;;;0.20;0.10;;;27.40;37.00;;;;;;4916551;28;45467;-61
2022/07/12 14:45:35;;;;;;;0.35;0.22;;;27.40;37.00;;;;;;4904105;28;45313;-66
2022/07/12 14:48:21;;;;;;;0.30;0.20;;;27.40;37.10;;;;;;4920538;28;46677;-64
2022/07/12 14:51:06;;;;;;;0.22;0.20;;;27.40;37.20;;;;;;4926416;28;44802;-63
2022/07/12 14:53:52;;;;;;;1.45;0.25;;;27.40;37.10;;;;;;4925088;28;45410;-64
2022/07/12 14:56:38;;;;;;;0.50;0.28;;;27.40;36.90;;;;;;4905209;28;45690;-65
2022/07/12 14:59:23;;;;;;;1.88;0.10;;;27.50;36.80;;;;;;4928569;28;46897;-63
2022/07/12 15:02:09;;;;;;;0.10;0.10;;;27.50;36.80;;;;;;4914842;28;46152;-63
2022/07/12 15:04:54;;;;;;;0.20;0.20;;;27.50;36.80;;;;;;4916674;28;45595;-63
2022/07/12 15:07:40;;;;;;;2.22;0.20;;;27.50;36.60;;;;;;4912209;28;45131;-63
2022/07/12 15:10:25;;;;;;;0.60;0.20;;;27.50;36.50;;;;;;4908841;28;46770;-62
2022/07/12 15:13:11;;;;;;;0.20;0.20;;;27.60;36.50;;;;;;4916965;28;45430;-62
2022/07/12 15:15:57;;;;;;;0.50;0.17;;;27.60;36.20;;;;;;4918570;28;45551;-63
2022/07/12 15:18:42;;;;;;;0.95;0.30;;;27.60;36.10;;;;;;4921621;28;45093;-63
2022/07/12 15:21:28;;;;;;;1.27;0.15;;;27.70;36.10;;;;;;4902862;28;46750;-60
2022/07/12 15:24:13;;;;;;;0.70;0.30;;;27.70;36.00;;;;;;4917987;28;44940;-63
2022/07/12 15:26:59;;;;;;;0.20;0.20;;;27.70;35.80;;;;;;4929856;28;45402;-63
2022/07/12 15:29:46;;;;;;;2.67;0.30;;;27.80;35.90;;;;;;4923747;28;45006;-63
2022/07/12 15:32:32;;;;;;;0.30;0.20;;;27.70;36.00;;;;;;4922471;28;46756;-61
2022/07/12 15:35:17;;;;;;;0.20;0.20;;;27.80;36.10;;;;;;4916803;28;44991;-63
2022/07/12 15:38:03;;;;;;;1.05;0.13;;;27.80;35.90;;;;;;4913911;28;45209;-62
2022/07/12 15:40:48;;;;;;;0.20;0.20;;;27.80;35.80;;;;;;4920941;28;45598;-63
2022/07/12 15:43:34;;;;;;;3.05;0.20;;;27.80;35.90;;;;;;4916841;28;46964;-62
2022/07/12 15:46:20;;;;;;;0.70;0.20;;;27.80;35.90;;;;;;4904359;28;45318;-64
2022/07/12 15:49:05;;;;;;;0.30;0.30;;;27.80;35.80;;;;;;4922065;28;45055;-61
2022/07/12 15:54:55;;;;;;;1.63;0.47;;;27.90;35.70;;;;;;4916116;28;46808;-63
2022/07/12 15:57:40;;;;;;;0.55;0.43;;;27.90;35.70;;;;;;4926005;28;45403;-64
2022/07/12 16:00:26;;;;;;;0.20;0.20;;;27.90;35.70;;;;;;4912629;28;45548;-64
2022/07/12 16:03:12;;;;;;;0.43;0.30;;;27.90;35.70;;;;;;4903554;28;45422;-68
2022/07/12 16:05:58;;;;;;;0.50;0.35;;;27.90;35.70;;;;;;4915374;28;47623;-67
2022/07/12 16:08:47;;;;;;;1.75;0.40;;;27.90;35.70;;;;;;4900631;28;45569;-68
2022/07/12 16:11:32;;;;;;;0.40;0.40;;;28.00;35.60;;;;;;4909636;28;44975;-67
2022/07/12 16:14:19;;;;;;;0.32;0.30;;;28.00;35.60;;;;;;4919743;28;45433;-66
2022/07/12 16:17:05;;;;;;;0.20;0.20;;;28.00;35.50;;;;;;4897378;28;46974;-68
2022/07/12 16:19:50;;;;;;;0.20;0.20;;;28.00;35.50;;;;;;4881187;28;45638;-71
2022/07/12 16:22:17;;;;;;;1.48;0.30;;;28.00;35.40;;;;;;4924694;28;44714;-67
2022/07/12 16:25:02;;;;;;;0.20;0.20;;;28.00;35.30;;;;;;4911239;28;45782;-66
2022/07/12 16:27:48;;;;;;;0.40;0.30;;;28.00;35.20;;;;;;4904766;28;46915;-71
2022/07/12 16:30:34;;;;;;;0.22;0.22;;;28.00;35.20;;;;;;4913117;28;45193;-63
2022/07/12 16:33:19;;;;;;;0.30;0.20;;;28.00;35.30;;;;;;4886693;28;45697;-72
2022/07/12 16:35:48;;;;;;;1.45;0.17;;;28.00;35.30;;;;;;4895522;28;45550;-68
2022/07/12 16:38:13;;;;;;;2.63;0.43;;;27.90;35.20;;;;;;4898567;28;45946;-70
2022/07/12 16:40:39;;;;;;;0.30;0.30;;;27.90;35.30;;;;;;4931423;28;45793;-71
2022/07/12 16:43:05;;;;;;;0.98;0.30;;;27.90;35.40;;;;;;4919199;28;45326;-64
2022/07/12 16:45:30;;;;;;;0.20;0.20;;;27.90;35.30;;;;;;4925572;28;45496;-70
2022/07/12 16:47:56;;;;;;;3.33;0.30;;;27.90;35.20;;;;;;4905335;28;46393;-66
2022/07/12 16:50:21;;;;;;;0.45;0.35;;;27.90;35.30;;;;;;4927269;28;45634;-68
2022/07/12 16:52:48;;;;;;;0.50;0.30;;;27.90;35.30;;;;;;4908265;28;45506;-69
2022/07/12 16:55:13;;;;;;;0.65;0.28;;;27.90;35.30;;;;;;4931084;28;45455;-66
2022/07/12 16:57:39;;;;;;;1.25;0.32;;;27.90;35.30;;;;;;4913838;28;46049;-70